Time;durP1;ratioP1;P1;durP2;ratioP2;P2;SDS_P1;SDS_P2;PMS_P1;PMS_P2;Temp;Humidity;BMP_temperature;BMP_pressure;BME280_temperature;BME280_humidity;BME280_pressure;Samples;Min_cycle;Max_cycle;Signal;HPM_P1;HPM_P2
2022/01/15 00:01:12;;;;;;;54.60;27.58;;;-1.80;99.90;;;;;;4899570;29;20068;-80
2022/01/15 00:04:01;;;;;;;51.70;26.35;;;-1.90;99.90;;;;;;4885983;29;20151;-81
2022/01/15 00:06:49;;;;;;;48.13;26.35;;;-2.10;99.90;;;;;;4877340;29;20068;-80
2022/01/15 00:09:38;;;;;;;49.30;25.80;;;-2.10;99.90;;;;;;4877713;29;20053;-81
2022/01/15 00:12:35;;;;;;;48.72;25.65;;;-2.10;99.90;;;;;;4876247;29;20042;-82
2022/01/15 00:15:37;;;;;;;54.88;27.70;;;-2.10;99.90;;;;;;4849041;29;20049;-80
2022/01/15 00:18:40;;;;;;;49.55;27.00;;;-2.10;99.90;;;;;;4889960;29;20048;-81
2022/01/15 00:21:29;;;;;;;52.70;27.38;;;-2.10;99.90;;;;;;4868053;29;20048;-81
2022/01/15 00:24:17;;;;;;;49.15;27.30;;;-2.10;99.90;;;;;;4874486;29;20065;-83
2022/01/15 00:27:05;;;;;;;49.38;27.08;;;-2.20;99.90;;;;;;4883583;29;20053;-79
2022/01/15 00:29:53;;;;;;;52.95;26.30;;;-2.20;99.90;;;;;;4872910;29;20622;-83
2022/01/15 00:32:40;;;;;;;53.65;28.08;;;-2.20;99.90;;;;;;4877779;29;20053;-80
2022/01/15 00:35:28;;;;;;;56.10;28.10;;;-2.20;99.90;;;;;;4882366;29;20044;-81
2022/01/15 00:38:21;;;;;;;53.20;28.77;;;-2.20;99.90;;;;;;4895090;29;20419;-82
2022/01/15 00:41:08;;;;;;;58.35;30.60;;;-2.30;99.90;;;;;;4877132;29;20104;-81
2022/01/15 00:43:56;;;;;;;54.30;29.45;;;-2.20;99.90;;;;;;4883650;29;20147;-82
2022/01/15 00:46:46;;;;;;;69.55;32.53;;;-2.20;99.90;;;;;;4872356;29;20045;-80
2022/01/15 00:49:36;;;;;;;73.47;31.58;;;-2.20;99.90;;;;;;4894442;29;20048;-79
2022/01/15 00:52:26;;;;;;;52.40;29.13;;;-2.20;99.90;;;;;;4872858;29;20445;-82
2022/01/15 00:55:16;;;;;;;52.80;29.35;;;-2.10;99.90;;;;;;4898952;29;20044;-82
2022/01/15 00:58:03;;;;;;;60.55;31.77;;;-2.10;99.90;;;;;;4897643;29;20518;-81
2022/01/15 01:00:50;;;;;;;64.75;30.95;;;-2.10;99.90;;;;;;4879847;29;20710;-80
2022/01/15 01:03:40;;;;;;;63.30;31.33;;;-2.20;99.90;;;;;;4884256;29;20045;-83
2022/01/15 01:06:28;;;;;;;63.20;30.63;;;-2.30;99.90;;;;;;4870369;29;20120;-83
2022/01/15 01:09:18;;;;;;;62.63;30.63;;;-2.30;99.90;;;;;;4866932;29;20056;-82
2022/01/15 01:24:33;;;;;;;51.03;26.55;;;-2.50;99.90;;;;;;4892220;29;20048;-82
2022/01/15 01:27:27;;;;;;;54.13;26.08;;;-2.50;99.90;;;;;;4884501;29;20081;-81
2022/01/15 01:30:26;;;;;;;52.05;26.50;;;-2.50;99.90;;;;;;4879721;29;20415;-82
2022/01/15 01:36:13;;;;;;;54.97;28.95;;;-2.50;99.90;;;;;;4897502;29;20514;-82
2022/01/15 01:39:06;;;;;;;55.30;28.77;;;-2.40;99.90;;;;;;4891025;29;20107;-82
2022/01/15 01:45:07;;;;;;;53.92;28.75;;;-2.40;99.90;;;;;;4881964;29;20056;-83
2022/01/15 01:47:57;;;;;;;57.03;28.38;;;-2.50;99.90;;;;;;4898044;29;20096;-81
2022/01/15 01:50:44;;;;;;;50.60;25.77;;;-2.40;99.90;;;;;;4870389;29;20128;-80
2022/01/15 01:53:32;;;;;;;53.70;27.77;;;-2.40;99.90;;;;;;4872822;29;20053;-80
2022/01/15 01:56:20;;;;;;;51.08;25.30;;;-2.50;99.90;;;;;;4883922;29;20625;-82
2022/01/15 01:59:08;;;;;;;47.53;25.33;;;-2.50;99.90;;;;;;4878959;29;20088;-82
2022/01/15 02:01:55;;;;;;;45.58;24.52;;;-2.60;99.90;;;;;;4880014;29;20056;-82
2022/01/15 02:04:43;;;;;;;51.47;25.58;;;-2.60;99.90;;;;;;4884367;29;20048;-82
2022/01/15 02:07:31;;;;;;;54.28;26.27;;;-2.70;99.90;;;;;;4861685;29;20060;-82
2022/01/15 02:10:20;;;;;;;48.55;26.30;;;-2.80;99.90;;;;;;4876046;29;20060;-81
2022/01/15 02:13:10;;;;;;;50.67;25.52;;;-2.90;99.90;;;;;;4881474;29;20188;-82
2022/01/15 02:16:00;;;;;;;52.17;26.58;;;-2.90;99.90;;;;;;4864900;29;20419;-82
2022/01/15 02:18:58;;;;;;;52.72;26.65;;;-2.90;99.90;;;;;;4892754;29;20052;-82
2022/01/15 02:24:44;;;;;;;57.60;28.15;;;-3.00;99.90;;;;;;4888113;29;20180;-83
2022/01/15 02:27:33;;;;;;;56.75;29.33;;;-3.00;99.90;;;;;;4877830;29;20344;-81
2022/01/15 02:30:20;;;;;;;45.38;25.83;;;-2.90;99.90;;;;;;4889669;29;20193;-81
2022/01/15 02:33:09;;;;;;;46.22;25.50;;;-3.00;99.90;;;;;;4877984;29;20152;-81
2022/01/15 02:35:58;;;;;;;52.63;27.73;;;-3.00;99.90;;;;;;4889871;29;20131;-81
2022/01/15 02:38:49;;;;;;;59.45;29.80;;;-2.90;99.90;;;;;;4899428;29;20212;-81
2022/01/15 02:41:38;;;;;;;64.70;31.58;;;-2.90;99.90;;;;;;4902222;29;20064;-83
2022/01/15 02:44:26;;;;;;;59.45;31.65;;;-2.80;99.90;;;;;;4873055;29;20538;-81
2022/01/15 02:50:21;;;;;;;60.03;31.75;;;-2.80;99.90;;;;;;4874076;29;20049;-81
2022/01/15 02:53:10;;;;;;;58.92;30.70;;;-2.80;99.90;;;;;;4878982;29;20141;-81
2022/01/15 02:55:59;;;;;;;60.08;30.67;;;-2.90;99.90;;;;;;4877372;29;20045;-80
2022/01/15 02:58:46;;;;;;;53.53;29.63;;;-2.90;99.90;;;;;;4866642;29;20192;-81
2022/01/15 03:01:38;;;;;;;67.75;30.17;;;-3.00;99.90;;;;;;4851953;29;20064;-81
2022/01/15 03:04:25;;;;;;;61.08;28.30;;;-3.10;99.90;;;;;;4881881;29;20131;-82
2022/01/15 03:07:13;;;;;;;53.20;26.27;;;-3.20;99.90;;;;;;4879716;29;20041;-82
2022/01/15 03:10:00;;;;;;;46.42;24.95;;;-3.20;99.90;;;;;;4872124;29;20987;-82
2022/01/15 03:12:49;;;;;;;47.28;23.42;;;-3.20;99.90;;;;;;4867773;29;20446;-82
2022/01/15 03:15:36;;;;;;;44.08;22.27;;;-3.30;99.90;;;;;;4877440;29;20135;-82
2022/01/15 03:18:26;;;;;;;42.30;22.35;;;-3.30;99.90;;;;;;4888481;29;20051;-81
2022/01/15 03:21:13;;;;;;;46.75;23.83;;;-3.40;99.90;;;;;;4880166;29;20098;-82
2022/01/15 03:24:01;;;;;;;48.28;23.55;;;-3.40;99.90;;;;;;4882909;29;20063;-82
2022/01/15 03:26:50;;;;;;;54.30;26.30;;;-3.40;99.90;;;;;;4871341;29;20143;-82
2022/01/15 03:29:37;;;;;;;53.60;27.02;;;-3.40;99.90;;;;;;4884102;29;20049;-82
2022/01/15 03:32:28;;;;;;;57.03;28.20;;;-3.30;99.90;;;;;;4858021;29;20094;-81
2022/01/15 03:35:21;;;;;;;55.30;28.42;;;-3.30;99.90;;;;;;4873202;29;20104;-83
2022/01/15 03:38:08;;;;;;;;;;;-3.30;99.90;;;;;;4884111;29;20101;-82
2022/01/15 03:40:58;;;;;;;51.00;27.63;;;-3.30;99.90;;;;;;4880059;29;19946;-81
2022/01/15 03:43:46;;;;;;;53.28;26.23;;;-3.20;99.90;;;;;;4889065;29;20115;-82
2022/01/15 03:46:34;;;;;;;58.90;28.17;;;-3.20;99.90;;;;;;4889735;29;20068;-82
2022/01/15 03:49:22;;;;;;;68.63;28.58;;;-3.10;99.90;;;;;;4888465;29;20208;-82
2022/01/15 03:52:10;;;;;;;53.28;27.98;;;-3.10;99.90;;;;;;4881098;29;20048;-83
2022/01/15 03:54:58;;;;;;;53.67;28.20;;;-3.10;99.90;;;;;;4884517;29;20092;-80
2022/01/15 03:57:47;;;;;;;57.03;30.10;;;-3.00;99.90;;;;;;4883860;29;20128;-81
2022/01/15 04:00:35;;;;;;;56.90;30.90;;;-3.00;99.90;;;;;;4865835;29;20207;-81
2022/01/15 04:03:22;;;;;;;54.53;30.85;;;-3.00;99.90;;;;;;4879369;29;20060;-82
2022/01/15 04:06:09;;;;;;;57.35;31.33;;;-3.00;99.90;;;;;;4883679;29;20060;-81
2022/01/15 04:08:59;;;;;;;63.80;30.70;;;-3.00;99.90;;;;;;4871845;29;20052;-81
2022/01/15 04:11:49;;;;;;;59.03;30.23;;;-3.00;99.90;;;;;;4882703;29;20051;-81
2022/01/15 04:14:36;;;;;;;57.55;29.85;;;-3.00;99.90;;;;;;4867959;29;20044;-82
2022/01/15 04:17:25;;;;;;;60.38;29.65;;;-3.00;99.90;;;;;;4885294;29;20059;-82
2022/01/15 04:20:16;;;;;;;62.67;30.98;;;-3.00;99.90;;;;;;4876014;29;20192;-82
2022/01/15 04:23:04;;;;;;;59.53;29.17;;;-3.10;99.90;;;;;;4881075;29;20079;-81
2022/01/15 04:25:51;;;;;;;47.25;24.58;;;-3.10;99.90;;;;;;4879975;29;20057;-82
2022/01/15 04:28:38;;;;;;;45.88;23.98;;;-3.10;99.90;;;;;;4868932;29;20056;-81
2022/01/15 04:31:25;;;;;;;48.35;25.45;;;-3.10;99.90;;;;;;4862365;29;20053;-81
2022/01/15 04:34:18;;;;;;;53.97;26.90;;;-3.20;99.90;;;;;;4865590;29;20053;-81
2022/01/15 04:37:13;;;;;;;53.22;26.42;;;-3.30;99.90;;;;;;4878023;29;20123;-81
2022/01/15 04:40:00;;;;;;;52.75;26.88;;;-3.30;99.90;;;;;;4882640;29;20179;-80
2022/01/15 04:42:49;;;;;;;52.78;26.55;;;-3.30;99.90;;;;;;4865804;29;20189;-81
2022/01/15 04:45:36;;;;;;;51.95;27.85;;;-3.40;99.90;;;;;;4872775;29;20073;-80
2022/01/15 04:48:24;;;;;;;53.10;28.23;;;-3.30;99.90;;;;;;4895614;29;20056;-81
2022/01/15 04:51:11;;;;;;;50.28;27.65;;;-3.30;99.90;;;;;;4868106;29;20060;-80
2022/01/15 04:53:59;;;;;;;55.42;27.83;;;-3.30;99.90;;;;;;4877748;29;20045;-83
2022/01/15 04:56:46;;;;;;;55.17;27.48;;;-3.30;99.90;;;;;;4886690;29;20127;-81
2022/01/15 04:59:34;;;;;;;58.63;27.88;;;-3.40;99.90;;;;;;4859154;29;20048;-80
2022/01/15 05:02:22;;;;;;;46.10;25.25;;;-3.40;99.90;;;;;;4877778;29;20081;-79
2022/01/15 05:05:10;;;;;;;50.35;23.25;;;-3.40;99.90;;;;;;4862116;29;20056;-81
2022/01/15 05:07:57;;;;;;;44.58;24.35;;;-3.40;99.90;;;;;;4879798;29;20055;-80
2022/01/15 05:10:47;;;;;;;41.70;22.85;;;-3.40;99.90;;;;;;4880354;29;20124;-82
2022/01/15 05:13:38;;;;;;;48.13;24.45;;;-3.40;99.90;;;;;;4873294;29;20419;-78
2022/01/15 05:16:25;;;;;;;48.47;24.92;;;-3.50;99.90;;;;;;4891840;29;20064;-82
2022/01/15 05:19:13;;;;;;;51.67;25.02;;;-3.50;99.90;;;;;;4884898;29;20048;-84
2022/01/15 05:22:01;;;;;;;51.50;26.10;;;-3.60;99.90;;;;;;4892320;29;20049;-80
2022/01/15 05:24:52;;;;;;;54.10;25.85;;;-3.70;99.90;;;;;;4888130;29;20056;-78
2022/01/15 05:27:43;;;;;;;53.97;24.95;;;-3.60;99.90;;;;;;4879359;29;20075;-80
2022/01/15 05:30:32;;;;;;;44.15;23.65;;;-3.60;99.90;;;;;;4893363;29;20215;-81
2022/01/15 05:33:19;;;;;;;42.53;23.80;;;-3.60;99.90;;;;;;4871405;29;20395;-81
2022/01/15 05:36:06;;;;;;;43.70;22.85;;;-3.50;99.90;;;;;;4889573;29;20044;-83
2022/01/15 05:38:54;;;;;;;49.55;25.45;;;-3.50;99.90;;;;;;4903826;29;20044;-80
2022/01/15 05:41:41;;;;;;;47.03;24.30;;;-3.50;99.90;;;;;;4885828;29;20443;-79
2022/01/15 05:44:29;;;;;;;43.25;23.88;;;-3.50;99.90;;;;;;4886966;29;20045;-81
2022/01/15 05:47:16;;;;;;;44.58;23.05;;;-3.50;99.90;;;;;;4879806;29;20048;-80
2022/01/15 05:50:04;;;;;;;43.38;23.58;;;-3.50;99.90;;;;;;4898074;29;20489;-82
2022/01/15 05:52:54;;;;;;;43.10;23.35;;;-3.60;99.90;;;;;;4882452;29;20128;-81
2022/01/15 05:55:42;;;;;;;48.58;22.85;;;-3.70;99.90;;;;;;4880300;29;20059;-81
2022/01/15 05:58:29;;;;;;;44.47;22.20;;;-3.70;99.90;;;;;;4887287;29;20127;-83
2022/01/15 06:01:23;;;;;;;44.15;22.88;;;-3.70;99.90;;;;;;4885488;29;20115;-83
2022/01/15 06:04:12;;;;;;;46.20;23.27;;;-3.80;99.90;;;;;;4882776;29;20576;-82
2022/01/15 06:07:02;;;;;;;49.92;23.70;;;-3.80;99.90;;;;;;4886065;29;20147;-80
2022/01/15 06:09:53;;;;;;;43.85;23.40;;;-3.80;99.90;;;;;;4886474;29;20116;-80
2022/01/15 06:12:44;;;;;;;45.15;23.00;;;-3.70;99.90;;;;;;4885767;29;20473;-81
2022/01/15 06:15:34;;;;;;;50.50;25.33;;;-3.70;99.90;;;;;;4894208;29;20548;-80
2022/01/15 06:18:23;;;;;;;52.53;24.73;;;-3.70;99.90;;;;;;4872288;29;20049;-80
2022/01/15 06:21:11;;;;;;;48.40;24.85;;;-3.70;99.90;;;;;;4875961;29;20060;-80
2022/01/15 06:24:01;;;;;;;50.08;25.67;;;-3.70;99.90;;;;;;4898163;29;20167;-83
2022/01/15 06:26:48;;;;;;;50.15;25.38;;;-3.70;99.90;;;;;;4879289;29;20132;-82
2022/01/15 06:29:35;;;;;;;55.28;27.67;;;-3.70;99.90;;;;;;4896114;29;20204;-81
2022/01/15 06:41:34;;;;;;;51.30;26.48;;;-3.50;99.90;;;;;;4811738;29;20042;-80
2022/01/15 06:44:25;;;;;;;49.60;25.85;;;-3.50;99.90;;;;;;4835645;29;20072;-79
2022/01/15 06:47:12;;;;;;;52.95;27.35;;;-3.50;99.90;;;;;;4886129;29;20156;-81
2022/01/15 06:50:04;;;;;;;54.38;28.48;;;-3.60;99.90;;;;;;4876737;29;20064;-81
2022/01/15 06:52:52;;;;;;;51.15;26.13;;;-3.70;99.90;;;;;;4883333;29;20049;-80
2022/01/15 06:55:40;;;;;;;47.38;25.83;;;-3.70;99.90;;;;;;4909906;29;20115;-82
2022/01/15 06:58:28;;;;;;;47.38;25.48;;;-3.80;99.90;;;;;;4901442;29;20131;-83
2022/01/15 07:01:18;;;;;;;47.45;26.58;;;-3.80;99.90;;;;;;4885196;29;20059;-82
2022/01/15 07:04:10;;;;;;;48.92;26.38;;;-3.80;99.90;;;;;;4892892;29;20080;-82
2022/01/15 07:06:57;;;;;;;60.13;29.27;;;-3.80;99.90;;;;;;4890356;29;20057;-82
2022/01/15 07:09:44;;;;;;;80.75;36.10;;;-3.80;99.90;;;;;;4892314;29;20128;-83
2022/01/15 07:12:32;;;;;;;82.38;34.55;;;-3.80;99.90;;;;;;4909721;29;20048;-81
2022/01/15 07:15:20;;;;;;;69.25;33.05;;;-3.80;99.90;;;;;;4905021;29;20152;-83
2022/01/15 07:18:09;;;;;;;59.42;28.85;;;-3.80;99.90;;;;;;4881916;29;20048;-83
2022/01/15 07:20:56;;;;;;;55.80;27.83;;;-3.80;99.90;;;;;;4880917;29;20055;-84
2022/01/15 07:23:43;;;;;;;56.67;29.23;;;-3.80;99.90;;;;;;4883732;29;20055;-83
2022/01/15 07:26:32;;;;;;;52.05;27.90;;;-3.80;99.90;;;;;;4858997;29;20052;-83
2022/01/15 07:29:29;;;;;;;59.10;28.83;;;-3.80;99.90;;;;;;4886987;29;20067;-82
2022/01/15 07:33:09;;;;;;;60.08;28.42;;;-3.80;99.90;;;;;;4873741;29;20080;-82
2022/01/15 07:36:28;;;;;;;52.92;27.05;;;-3.70;99.90;;;;;;4897700;29;20367;-81
2022/01/15 07:39:16;;;;;;;52.35;26.55;;;-3.60;99.90;;;;;;4887578;29;20074;-83
2022/01/15 07:42:04;;;;;;;58.70;29.00;;;-3.60;99.90;;;;;;4863198;29;20045;-81
2022/01/15 07:44:54;;;;;;;66.35;34.20;;;-3.50;99.90;;;;;;4901417;29;20056;-81
2022/01/15 07:47:46;;;;;;;64.93;32.75;;;-3.40;99.90;;;;;;4881961;29;20079;-81
2022/01/15 07:55:30;;;;;;;61.58;33.22;;;-3.20;99.90;;;;;;4892565;29;20041;-81
2022/01/15 08:03:12;;;;;;;64.82;34.15;;;-2.80;99.90;;;;;;4901186;29;20044;-82
2022/01/15 08:27:37;;;;;;;64.13;34.15;;;-1.80;99.90;;;;;;4890455;29;20490;-82
2022/01/15 08:30:57;;;;;;;67.22;35.70;;;-1.50;99.90;;;;;;4899214;29;20048;-82
2022/01/15 08:50:53;;;;;;;84.25;45.63;;;0.10;99.90;;;;;;4809026;29;20115;-83
2022/01/15 08:53:40;;;;;;;90.20;48.90;;;0.30;99.90;;;;;;4781805;29;20137;-81
2022/01/15 08:56:50;;;;;;;82.07;46.65;;;0.50;99.90;;;;;;4838477;29;20057;-81
2022/01/15 08:59:38;;;;;;;85.78;46.60;;;0.70;99.90;;;;;;4843571;29;20042;-82
2022/01/15 09:02:25;;;;;;;81.45;46.95;;;1.10;99.90;;;;;;4858347;29;20123;-80
2022/01/15 09:05:19;;;;;;;87.93;47.03;;;1.20;99.90;;;;;;4898952;29;20048;-80
2022/01/15 09:08:24;;;;;;;87.78;46.28;;;1.30;99.90;;;;;;4833323;29;20142;-82
2022/01/15 09:11:29;;;;;;;81.90;44.72;;;1.30;99.90;;;;;;4817542;29;20281;-80
2022/01/15 09:15:06;;;;;;;75.80;42.50;;;1.40;99.90;;;;;;4814331;29;20106;-79
2022/01/15 09:26:19;;;;;;;61.80;35.83;;;1.90;99.90;;;;;;4815824;29;20408;-80
2022/01/15 09:32:23;;;;;;;43.08;26.83;;;3.10;99.90;;;;;;4807600;29;20198;-79
2022/01/15 09:35:13;;;;;;;41.05;24.67;;;3.60;99.90;;;;;;4792124;29;20127;-80
2022/01/15 09:38:01;;;;;;;40.15;23.70;;;4.30;99.90;;;;;;4821032;29;20074;-80
2022/01/15 09:40:48;;;;;;;32.97;18.98;;;4.90;99.90;;;;;;4806003;29;20051;-79
2022/01/15 09:43:39;;;;;;;29.20;18.17;;;5.90;99.90;;;;;;4802607;29;20068;-80
2022/01/15 09:46:28;;;;;;;28.48;15.68;;;7.20;99.90;;;;;;4869191;29;20173;-80
2022/01/15 09:49:16;;;;;;;24.50;15.85;;;8.30;99.90;;;;;;4863373;29;20057;-80
2022/01/15 09:52:04;;;;;;;21.52;13.63;;;9.10;47.90;;;;;;4887834;29;20052;-80
2022/01/15 09:54:53;;;;;;;21.90;12.82;;;9.70;21.30;;;;;;4883124;29;20459;-81
2022/01/15 09:57:43;;;;;;;20.58;13.15;;;10.30;1.00;;;;;;4879968;29;20149;-80
2022/01/15 10:00:30;;;;;;;19.77;13.32;;;11.20;1.00;;;;;;4874528;29;20057;-80
2022/01/15 10:03:20;;;;;;;16.33;10.63;;;12.40;99.90;;;;;;4884674;29;20057;-80
2022/01/15 10:06:08;;;;;;;20.27;12.80;;;13.50;99.90;;;;;;4899494;29;20140;-79
2022/01/15 10:09:09;;;;;;;18.05;11.30;;;13.70;1.00;;;;;;4867505;29;20069;-80
2022/01/15 10:11:57;;;;;;;18.50;12.05;;;13.50;5.00;;;;;;4892199;29;20057;-81
2022/01/15 10:14:44;;;;;;;17.73;12.35;;;13.40;21.00;;;;;;4877132;29;20359;-80
2022/01/15 10:17:39;;;;;;;21.30;13.55;;;13.80;15.90;;;;;;4900363;29;20059;-81
2022/01/15 10:20:35;;;;;;;20.10;13.43;;;14.00;25.20;;;;;;4884819;29;20570;-80
2022/01/15 10:23:25;;;;;;;22.30;13.98;;;13.50;39.20;;;;;;4881777;29;20057;-80
2022/01/15 10:26:19;;;;;;;21.25;14.48;;;12.40;45.30;;;;;;4886991;29;20052;-79
2022/01/15 10:29:10;;;;;;;20.50;13.73;;;11.50;53.50;;;;;;4884424;29;20048;-79
2022/01/15 10:31:57;;;;;;;21.08;13.82;;;11.10;59.20;;;;;;4874030;29;20189;-81
2022/01/15 10:34:45;;;;;;;19.67;12.85;;;11.80;59.70;;;;;;4870783;29;20446;-81
2022/01/15 10:37:37;;;;;;;18.20;12.48;;;13.00;60.60;;;;;;4877395;29;20056;-81
2022/01/15 10:40:50;;;;;;;15.85;11.57;;;14.20;55.70;;;;;;4867238;29;20109;-81
2022/01/15 10:43:37;;;;;;;;;;;15.00;53.90;;;;;;4884841;29;20048;-80
2022/01/15 10:46:41;;;;;;;15.77;11.38;;;14.30;56.60;;;;;;4863719;29;19955;-79
2022/01/15 10:49:31;;;;;;;16.48;12.02;;;13.20;58.40;;;;;;4890871;29;20139;-82
2022/01/15 10:52:24;;;;;;;18.25;11.68;;;13.00;59.90;;;;;;4879388;29;20359;-79
2022/01/15 10:55:13;;;;;;;16.25;12.23;;;12.60;59.80;;;;;;4897953;29;20048;-79
2022/01/15 10:58:06;;;;;;;17.33;10.95;;;11.90;61.50;;;;;;4882736;29;20045;-79
2022/01/15 11:00:55;;;;;;;16.90;11.05;;;12.20;61.30;;;;;;4884772;29;20057;-81
2022/01/15 11:03:44;;;;;;;18.15;12.02;;;13.00;59.00;;;;;;4887420;29;20618;-79
2022/01/15 11:06:37;;;;;;;20.55;12.27;;;13.20;59.50;;;;;;4868193;29;20061;-79
2022/01/15 11:09:48;;;;;;;21.10;13.00;;;13.50;58.10;;;;;;4870096;29;20097;-81
2022/01/15 11:12:36;;;;;;;21.05;12.68;;;13.90;56.70;;;;;;4884574;29;20784;-78
2022/01/15 11:15:25;;;;;;;20.77;12.30;;;13.70;57.40;;;;;;4895888;29;20051;-79
2022/01/15 11:18:27;;;;;;;14.93;11.43;;;14.50;57.70;;;;;;4870106;29;20471;-78
2022/01/15 11:21:17;;;;;;;14.48;11.13;;;15.60;52.70;;;;;;4886946;29;20048;-80
2022/01/15 11:24:08;;;;;;;14.50;11.10;;;15.70;54.20;;;;;;4878371;29;20076;-79
2022/01/15 11:26:58;;;;;;;17.65;10.95;;;15.70;52.50;;;;;;4882721;29;20048;-80
2022/01/15 11:29:47;;;;;;;14.75;11.15;;;15.40;53.10;;;;;;4883959;29;20398;-80
2022/01/15 11:32:35;;;;;;;15.25;10.80;;;15.30;53.50;;;;;;4902123;29;20383;-79
2022/01/15 11:35:40;;;;;;;24.25;13.85;;;15.60;52.20;;;;;;4883818;29;20045;-81
2022/01/15 11:38:45;;;;;;;14.65;10.95;;;15.50;52.30;;;;;;4893158;29;20131;-79
2022/01/15 11:41:32;;;;;;;18.30;12.10;;;15.20;53.80;;;;;;4900973;29;20060;-79
2022/01/15 11:44:38;;;;;;;13.35;9.85;;;15.00;53.40;;;;;;4896998;29;20135;-79
2022/01/15 11:47:28;;;;;;;13.32;9.40;;;14.60;53.90;;;;;;4883257;29;20176;-80
2022/01/15 11:50:26;;;;;;;16.15;10.70;;;15.10;52.40;;;;;;4902735;29;20074;-78
2022/01/15 11:53:44;;;;;;;13.07;8.60;;;15.70;51.30;;;;;;4899918;29;20055;-79
2022/01/15 11:56:42;;;;;;;14.05;10.02;;;15.10;50.70;;;;;;4896472;29;20085;-79
2022/01/15 11:59:29;;;;;;;14.85;10.10;;;15.30;50.40;;;;;;4878471;29;20494;-78
2022/01/15 12:02:36;;;;;;;13.77;9.40;;;15.60;49.60;;;;;;4881044;29;20049;-80
2022/01/15 12:05:30;;;;;;;13.07;9.63;;;16.10;50.10;;;;;;4885210;29;20049;-80
2022/01/15 12:08:21;;;;;;;13.10;9.35;;;15.80;49.00;;;;;;4870716;29;20056;-79
2022/01/15 12:11:09;;;;;;;14.63;9.40;;;16.40;48.40;;;;;;4887460;29;20064;-81
2022/01/15 12:13:56;;;;;;;17.35;11.00;;;15.80;49.80;;;;;;4871082;29;20512;-79
2022/01/15 12:16:48;;;;;;;15.68;10.40;;;15.50;49.60;;;;;;4872411;29;20056;-79
2022/01/15 12:19:36;;;;;;;14.07;10.35;;;15.40;51.00;;;;;;4894548;29;20175;-79
2022/01/15 12:22:44;;;;;;;15.77;10.38;;;15.20;51.60;;;;;;4878947;29;20127;-78
2022/01/15 12:25:36;;;;;;;20.77;10.82;;;15.40;50.80;;;;;;4895371;29;20113;-79
2022/01/15 12:28:27;;;;;;;14.38;10.75;;;16.50;49.20;;;;;;4885859;29;20473;-80
2022/01/15 12:31:17;;;;;;;17.08;11.00;;;16.80;46.90;;;;;;4886631;29;20040;-79
2022/01/15 12:34:04;;;;;;;13.85;11.27;;;16.90;47.20;;;;;;4871786;29;20060;-79
2022/01/15 12:36:55;;;;;;;17.23;11.70;;;17.00;46.70;;;;;;4879438;29;20144;-80
2022/01/15 12:39:44;;;;;;;16.83;12.55;;;16.10;47.80;;;;;;4874845;29;20076;-78
2022/01/15 12:42:34;;;;;;;17.48;12.45;;;16.40;47.90;;;;;;4878067;29;20068;-78
2022/01/15 12:45:22;;;;;;;17.45;12.48;;;15.90;49.10;;;;;;4888915;29;20130;-79
2022/01/15 12:48:15;;;;;;;21.10;13.35;;;15.80;49.30;;;;;;4884678;29;20125;-79
2022/01/15 12:51:06;;;;;;;;;;;16.00;49.90;;;;;;4884864;29;20117;-79
2022/01/15 12:53:57;;;;;;;15.02;11.05;;;16.10;49.90;;;;;;4879499;29;19927;-79
2022/01/15 12:56:45;;;;;;;19.80;12.13;;;16.80;46.60;;;;;;4869431;29;20172;-77
2022/01/15 12:59:33;;;;;;;16.63;12.10;;;16.60;46.90;;;;;;4881505;29;20462;-79
2022/01/15 13:02:26;;;;;;;17.95;12.20;;;16.10;47.50;;;;;;4887489;29;20047;-79
2022/01/15 13:05:13;;;;;;;16.30;12.40;;;15.90;48.30;;;;;;4872805;29;20055;-79
2022/01/15 13:08:04;;;;;;;18.02;12.40;;;15.90;48.60;;;;;;4868891;29;20052;-80
2022/01/15 13:13:53;;;;;;;17.85;11.70;;;15.60;49.10;;;;;;4905048;29;20062;-80
2022/01/15 13:16:43;;;;;;;18.75;12.77;;;16.20;47.20;;;;;;4881725;29;20140;-79
2022/01/15 13:19:37;;;;;;;17.98;11.98;;;15.90;47.40;;;;;;4872687;29;20063;-79
2022/01/15 13:22:24;;;;;;;18.88;13.50;;;16.20;47.90;;;;;;4888553;29;20049;-79
2022/01/15 13:25:12;;;;;;;19.15;14.07;;;16.70;46.40;;;;;;4871225;29;20045;-81
2022/01/15 13:28:02;;;;;;;23.38;15.15;;;16.80;45.70;;;;;;4865729;29;20056;-79
2022/01/15 13:30:52;;;;;;;20.45;14.50;;;16.10;46.50;;;;;;4879264;29;20041;-80
2022/01/15 13:33:42;;;;;;;19.63;13.13;;;15.10;48.20;;;;;;4882700;29;20391;-80
2022/01/15 13:36:32;;;;;;;21.33;14.27;;;15.60;48.10;;;;;;4900984;29;20427;-80
2022/01/15 13:39:22;;;;;;;21.33;14.55;;;15.70;47.80;;;;;;4894090;29;20402;-80
2022/01/15 13:42:21;;;;;;;25.20;15.93;;;15.60;48.20;;;;;;4875300;29;20063;-81
2022/01/15 13:45:11;;;;;;;22.58;15.55;;;15.20;48.50;;;;;;4887377;29;20147;-80
2022/01/15 13:48:28;;;;;;;24.10;15.52;;;14.50;49.40;;;;;;4880549;29;20155;-81
2022/01/15 13:54:22;;;;;;;23.63;15.85;;;14.20;49.90;;;;;;4898555;29;20080;-79
2022/01/15 13:57:13;;;;;;;24.05;16.33;;;14.10;50.30;;;;;;4874052;29;20090;-80
2022/01/15 14:00:10;;;;;;;27.52;16.80;;;14.10;52.00;;;;;;4898426;29;20063;-80
2022/01/15 14:03:05;;;;;;;27.50;16.80;;;13.70;51.90;;;;;;4880288;29;20120;-81
2022/01/15 14:05:57;;;;;;;24.35;17.38;;;13.40;52.70;;;;;;4885724;29;20161;-79
2022/01/15 14:08:46;;;;;;;25.08;16.27;;;13.00;53.70;;;;;;4874458;29;20390;-80
2022/01/15 14:11:36;;;;;;;27.00;17.63;;;13.00;54.20;;;;;;4885070;29;20052;-80
2022/01/15 14:14:23;;;;;;;28.90;18.40;;;12.90;54.50;;;;;;4878891;29;20060;-80
2022/01/15 14:17:18;;;;;;;28.27;17.70;;;12.60;55.70;;;;;;4871652;29;20258;-80
2022/01/15 14:23:02;;;;;;;32.72;20.05;;;12.70;55.60;;;;;;4899199;29;20041;-79
2022/01/15 14:25:50;;;;;;;30.10;18.02;;;12.40;56.40;;;;;;4879147;29;20052;-80
2022/01/15 14:28:37;;;;;;;31.20;17.92;;;12.00;58.20;;;;;;4869832;29;20195;-80
2022/01/15 14:31:27;;;;;;;26.48;18.15;;;12.00;58.00;;;;;;4882553;29;20185;-80
2022/01/15 14:34:14;;;;;;;29.52;18.52;;;12.10;57.80;;;;;;4880078;29;20116;-79
2022/01/15 14:37:02;;;;;;;28.52;19.67;;;12.10;57.90;;;;;;4887273;29;20049;-79
2022/01/15 14:39:57;;;;;;;30.63;19.42;;;11.70;58.60;;;;;;4876949;29;20123;-81
2022/01/15 14:42:46;;;;;;;31.77;19.63;;;11.60;59.50;;;;;;4890611;29;20049;-81
2022/01/15 14:45:36;;;;;;;31.63;19.52;;;11.80;59.90;;;;;;4873728;29;20056;-80
2022/01/15 14:48:25;;;;;;;27.15;19.55;;;11.80;58.70;;;;;;4885846;29;20073;-80
2022/01/15 14:51:16;;;;;;;29.48;19.00;;;11.60;59.20;;;;;;4882800;29;20439;-81
2022/01/15 14:54:04;;;;;;;26.52;18.92;;;11.40;60.00;;;;;;4870439;29;20224;-81
2022/01/15 14:56:57;;;;;;;30.00;19.30;;;11.50;60.50;;;;;;4895499;29;20227;-81
2022/01/15 14:59:44;;;;;;;22.85;13.68;;;11.80;59.80;;;;;;4887929;29;20160;-80
2022/01/15 15:02:33;;;;;;;30.73;18.83;;;12.10;58.60;;;;;;4894860;29;20472;-82
2022/01/15 15:05:20;;;;;;;33.10;20.40;;;12.10;58.50;;;;;;4877820;29;20052;-79
2022/01/15 15:08:08;;;;;;;36.45;20.83;;;11.80;59.00;;;;;;4870983;29;20060;-80
2022/01/15 15:10:55;;;;;;;32.85;22.02;;;11.30;60.20;;;;;;4878837;29;20068;-80
2022/01/15 15:13:44;;;;;;;31.85;21.25;;;11.30;60.80;;;;;;4880850;29;20049;-80
2022/01/15 15:16:32;;;;;;;30.23;20.90;;;10.60;62.50;;;;;;4869644;29;20040;-81
2022/01/15 15:19:19;;;;;;;34.88;22.67;;;9.80;65.60;;;;;;4896144;29;20059;-80
2022/01/15 15:22:09;;;;;;;35.75;22.13;;;8.90;69.70;;;;;;4886028;29;20045;-81
2022/01/15 15:24:56;;;;;;;38.15;23.58;;;8.20;73.50;;;;;;4883382;29;20049;-80
2022/01/15 15:27:45;;;;;;;35.53;23.08;;;7.70;76.10;;;;;;4885282;29;20099;-80
2022/01/15 15:30:33;;;;;;;36.25;23.33;;;7.20;77.90;;;;;;4914469;29;20492;-79
2022/01/15 15:33:22;;;;;;;40.53;23.17;;;6.80;77.80;;;;;;4891509;29;20519;-79
2022/01/15 15:36:10;;;;;;;35.95;24.20;;;6.30;1.00;;;;;;4881712;29;20530;-80
2022/01/15 15:39:00;;;;;;;42.75;25.27;;;5.90;39.90;;;;;;4880184;29;20418;-81
2022/01/15 15:41:49;;;;;;;41.85;23.92;;;5.60;84.90;;;;;;4893391;29;20056;-79
2022/01/15 15:44:36;;;;;;;46.45;27.05;;;5.30;92.20;;;;;;4893625;29;20483;-78
2022/01/15 15:47:26;;;;;;;42.70;25.77;;;4.90;95.00;;;;;;4882300;29;20065;-78
2022/01/15 15:50:33;;;;;;;46.58;26.98;;;4.60;1.00;;;;;;4877765;29;20056;-78
2022/01/15 15:53:29;;;;;;;47.65;27.20;;;4.20;99.90;;;;;;4869649;29;20121;-80
2022/01/15 15:57:04;;;;;;;45.90;27.58;;;3.80;99.90;;;;;;4876984;29;20223;-78
2022/01/15 16:00:23;;;;;;;46.97;27.67;;;3.40;99.90;;;;;;4885022;29;20050;-80
2022/01/15 16:03:52;;;;;;;55.47;30.08;;;3.10;1.00;;;;;;4856559;29;20289;-79
2022/01/15 16:07:24;;;;;;;53.55;30.70;;;2.80;1.00;;;;;;4852823;29;20613;-81
2022/01/15 16:10:26;;;;;;;60.95;32.75;;;2.70;1.00;;;;;;4847325;29;20083;-80
2022/01/15 16:13:34;;;;;;;57.57;33.73;;;2.50;1.00;;;;;;4841360;29;20064;-80
2022/01/15 16:16:33;;;;;;;55.15;33.10;;;2.30;1.00;;;;;;4847735;29;20065;-80